createdAt,value
2018-11-10T00:01:48.798Z,32.10
2018-11-10T00:04:19.880Z,30.57
2018-11-10T00:06:51.249Z,32.37
2018-11-10T00:09:23.154Z,29.30
2018-11-10T00:11:54.926Z,31.63
2018-11-10T00:14:26.869Z,30.73
2018-11-10T00:16:58.091Z,32.43
2018-11-10T00:19:29.898Z,29.23
2018-11-10T00:22:01.443Z,31.50
2018-11-10T00:24:32.749Z,31.13
2018-11-10T00:27:03.853Z,30.63
2018-11-10T00:29:35.544Z,28.60
2018-11-10T00:32:07.300Z,29.73
2018-11-10T00:34:39.008Z,31.20
2018-11-10T00:37:10.052Z,31.37
2018-11-10T00:39:41.565Z,30.97
2018-11-10T00:42:13.450Z,32.23
2018-11-10T00:44:46.053Z,32.13
2018-11-10T00:47:18.372Z,34.33
2018-11-10T00:49:49.503Z,31.03
2018-11-10T00:52:20.985Z,31.07
2018-11-10T00:54:53.995Z,31.83
2018-11-10T00:57:25.499Z,30.23
2018-11-10T00:59:56.849Z,30.53
2018-11-10T01:02:29.383Z,30.03
2018-11-10T01:05:03.510Z,29.63
2018-11-10T01:07:37.287Z,30.50
2018-11-10T01:10:10.285Z,30.27
2018-11-10T01:12:42.626Z,31.30
2018-11-10T01:15:14.938Z,29.50
2018-11-10T01:17:47.502Z,28.43
2018-11-10T01:20:19.517Z,32.57
2018-11-10T01:22:52.532Z,29.60
2018-11-10T01:25:23.625Z,30.43
2018-11-10T01:27:55.882Z,31.57
2018-11-10T01:30:28.752Z,31.67
2018-11-10T01:33:00.577Z,30.10
2018-11-10T01:35:32.344Z,30.10
2018-11-10T01:38:03.889Z,31.03
2018-11-10T01:40:34.944Z,30.37
2018-11-10T01:43:06.000Z,30.57
2018-11-10T01:45:38.429Z,30.63
2018-11-10T01:48:10.281Z,31.13
2018-11-10T01:50:41.493Z,32.93
2018-11-10T01:53:12.870Z,32.70
2018-11-10T01:55:44.305Z,31.17
2018-11-10T01:58:15.449Z,34.40
2018-11-10T02:00:46.798Z,32.33
2018-11-10T02:03:19.652Z,32.67
2018-11-10T02:05:53.160Z,32.17
2018-11-10T02:08:25.583Z,31.07
2018-11-10T02:10:57.432Z,29.73
2018-11-10T02:13:29.441Z,31.40
2018-11-10T02:16:01.920Z,30.70
2018-11-10T02:18:35.728Z,30.50
2018-11-10T02:21:08.091Z,29.57
2018-11-10T02:23:39.865Z,29.30
2018-11-10T02:26:11.395Z,30.13
2018-11-10T02:28:43.600Z,28.23
2018-11-10T02:31:14.654Z,30.47
2018-11-10T02:33:46.598Z,29.80
2018-11-10T02:36:18.394Z,29.17
2018-11-10T02:38:51.306Z,28.60
2018-11-10T02:41:22.634Z,28.23
2018-11-10T02:43:54.174Z,27.50
2018-11-10T02:46:26.205Z,27.23
2018-11-10T02:48:57.697Z,27.63
2018-11-10T02:51:30.005Z,26.80
2018-11-10T02:54:01.064Z,28.07
2018-11-10T02:56:33.542Z,28.60
2018-11-10T02:59:05.666Z,26.73
2018-11-10T03:01:38.464Z,28.13
2018-11-10T03:04:09.883Z,27.53
2018-11-10T03:06:41.376Z,28.50
2018-11-10T03:09:14.577Z,27.10
2018-11-10T03:11:47.850Z,26.60
2018-11-10T03:14:19.249Z,27.63
2018-11-10T03:16:50.745Z,26.90
2018-11-10T03:19:26.126Z,27.13
2018-11-10T03:21:58.492Z,26.50
2018-11-10T03:24:31.552Z,27.77
2018-11-10T03:27:04.347Z,27.60
2018-11-10T03:29:36.707Z,26.93
2018-11-10T03:32:08.200Z,27.10
2018-11-10T03:34:39.894Z,28.33
2018-11-10T03:37:12.026Z,27.80
2018-11-10T03:39:43.850Z,26.43
2018-11-10T03:42:15.995Z,27.30
2018-11-10T03:44:48.780Z,27.07
2018-11-10T03:47:21.564Z,27.57
2018-11-10T03:49:54.039Z,27.23
2018-11-10T03:52:26.441Z,26.67
2018-11-10T03:54:59.010Z,26.00
2018-11-10T03:57:30.975Z,26.97
2018-11-10T04:00:02.951Z,27.50
2018-11-10T04:02:35.624Z,27.10
2018-11-10T04:05:08.083Z,27.23
2018-11-10T04:07:39.279Z,26.10
2018-11-10T04:10:11.275Z,26.27
2018-11-10T04:12:44.483Z,26.87
2018-11-10T04:15:16.044Z,26.17
2018-11-10T04:17:47.116Z,26.50
2018-11-10T04:20:20.706Z,24.90
2018-11-10T04:22:53.026Z,26.87
2018-11-10T04:25:24.391Z,26.30
2018-11-10T04:27:58.003Z,26.03
2018-11-10T04:30:29.374Z,26.60
2018-11-10T04:33:01.361Z,26.47
2018-11-10T04:35:34.157Z,26.07
2018-11-10T04:38:07.025Z,26.10
2018-11-10T04:40:39.052Z,25.43
2018-11-10T04:43:11.516Z,25.10
2018-11-10T04:45:44.300Z,24.77
2018-11-10T04:48:17.688Z,25.57
2018-11-10T04:50:49.673Z,25.97
2018-11-10T04:53:21.432Z,26.30
2018-11-10T04:55:52.504Z,23.63
2018-11-10T04:58:24.946Z,25.23
2018-11-10T05:00:57.266Z,25.03
2018-11-10T05:03:29.522Z,24.17
2018-11-10T05:06:01.833Z,24.13
2018-11-10T05:08:34.418Z,23.10
2018-11-10T05:11:07.204Z,23.87
2018-11-10T05:13:40.356Z,25.43
2018-11-10T05:16:14.476Z,26.27
2018-11-10T05:18:46.871Z,23.43
2018-11-10T05:21:19.013Z,24.50
2018-11-10T05:23:51.066Z,24.20
2018-11-10T05:26:23.452Z,24.13
2018-11-10T05:28:54.468Z,26.03
2018-11-10T05:31:26.690Z,24.47
2018-11-10T05:33:58.986Z,24.57
2018-11-10T05:36:30.756Z,24.50
2018-11-10T05:39:03.129Z,23.43
2018-11-10T05:41:35.988Z,24.50
2018-11-10T05:44:07.105Z,24.43
2018-11-10T05:46:38.269Z,24.73
2018-11-10T05:49:12.112Z,24.50
2018-11-10T05:51:44.400Z,24.20
2018-11-10T05:54:16.674Z,23.33
2018-11-10T05:56:50.223Z,23.37
2018-11-10T05:59:22.058Z,23.43
2018-11-10T06:01:53.125Z,22.93
2018-11-10T06:04:25.907Z,22.23
2018-11-10T06:06:57.471Z,23.23
2018-11-10T06:09:29.855Z,22.53
2018-11-10T06:12:02.933Z,22.37
2018-11-10T06:14:35.284Z,22.90
2018-11-10T06:17:07.170Z,22.37
2018-11-10T06:19:38.953Z,20.53
2018-11-10T06:22:12.905Z,21.33
2018-11-10T06:24:45.406Z,21.60
2018-11-10T06:27:18.090Z,21.13
2018-11-10T06:29:49.672Z,20.77
2018-11-10T06:32:21.954Z,19.90
2018-11-10T06:34:54.807Z,20.50
2018-11-10T06:37:27.655Z,20.03
2018-11-10T06:39:59.756Z,19.77
2018-11-10T06:42:33.463Z,19.00
2018-11-10T06:45:06.107Z,18.73
2018-11-10T06:47:37.589Z,20.30
2018-11-10T06:50:10.888Z,19.17
2018-11-10T06:52:43.671Z,18.97
2018-11-10T06:55:14.751Z,19.83
2018-11-10T06:57:47.989Z,17.93
2018-11-10T07:00:20.908Z,18.23
2018-11-10T07:02:52.481Z,17.97
2018-11-10T07:05:23.616Z,16.90
2018-11-10T07:07:54.686Z,17.43
2018-11-10T07:10:26.418Z,18.77
2018-11-10T07:12:57.794Z,17.63
2018-11-10T07:15:42.922Z,17.97
2018-11-10T07:18:14.772Z,16.80
2018-11-10T07:20:50.503Z,18.47
2018-11-10T07:23:22.091Z,17.53
2018-11-10T07:25:53.639Z,15.83
2018-11-10T07:28:26.579Z,17.00
2018-11-10T07:30:59.655Z,15.60
2018-11-10T07:33:32.959Z,14.90
2018-11-10T07:36:05.904Z,15.13
2018-11-10T07:38:37.611Z,14.73
2018-11-10T07:41:09.508Z,15.10
2018-11-10T07:43:43.492Z,14.13
2018-11-10T07:46:16.532Z,14.10
2018-11-10T07:48:49.430Z,13.50
2018-11-10T07:51:21.304Z,13.27
2018-11-10T07:53:53.652Z,13.70
2018-11-10T07:56:24.964Z,13.30
2018-11-10T07:58:57.203Z,13.60
2018-11-10T08:01:30.331Z,12.93
2018-11-10T08:04:02.857Z,13.90
2018-11-10T08:06:35.664Z,13.33
2018-11-10T08:09:09.597Z,13.27
2018-11-10T08:11:41.531Z,13.03
2018-11-10T08:14:13.811Z,12.03
2018-11-10T08:16:45.542Z,11.63
2018-11-10T08:19:18.133Z,12.47
2018-11-10T08:21:50.019Z,12.30
2018-11-10T08:24:21.353Z,12.13
2018-11-10T08:26:54.116Z,11.93
2018-11-10T08:29:26.061Z,12.03
2018-11-10T08:31:57.604Z,12.07
2018-11-10T08:34:29.385Z,12.27
2018-11-10T08:37:00.908Z,11.00
2018-11-10T08:39:34.054Z,10.77
2018-11-10T08:42:06.584Z,9.93
2018-11-10T08:44:38.679Z,10.40
2018-11-10T08:47:10.604Z,11.47
2018-11-10T08:49:41.884Z,11.03
2018-11-10T08:52:13.940Z,10.37
2018-11-10T08:54:45.870Z,10.37
2018-11-10T08:57:18.454Z,11.10
2018-11-10T08:59:51.241Z,9.70
2018-11-10T09:02:22.524Z,10.13
2018-11-10T09:04:54.493Z,10.07
2018-11-10T09:07:25.971Z,10.20
2018-11-10T09:09:58.156Z,10.00
2018-11-10T09:12:30.620Z,9.50
2018-11-10T09:15:02.314Z,10.73
2018-11-10T09:17:35.196Z,10.53
2018-11-10T09:20:08.642Z,10.43
2018-11-10T09:22:41.493Z,9.87
2018-11-10T09:25:13.938Z,10.27
2018-11-10T09:27:45.109Z,10.77
2018-11-10T09:30:17.660Z,10.70
2018-11-10T09:32:49.652Z,10.80
2018-11-10T09:35:22.206Z,10.23
2018-11-10T09:37:53.658Z,10.10
2018-11-10T09:40:24.837Z,10.77
2018-11-10T09:42:56.012Z,10.87
2018-11-10T09:45:28.034Z,10.37
2018-11-10T09:48:00.558Z,10.73
2018-11-10T09:50:31.864Z,10.27
2018-11-10T09:53:03.605Z,10.80
2018-11-10T09:55:36.005Z,11.40
2018-11-10T09:58:07.375Z,11.40
2018-11-10T10:00:38.763Z,11.67
2018-11-10T10:03:09.839Z,11.43
2018-11-10T10:05:42.220Z,11.70
2018-11-10T10:08:14.940Z,11.23
2018-11-10T10:10:48.114Z,11.93
2018-11-10T10:13:19.526Z,10.97
2018-11-10T10:15:52.352Z,11.77
2018-11-10T10:18:25.189Z,12.13
2018-11-10T10:20:57.031Z,12.53
2018-11-10T10:23:29.120Z,12.20
2018-11-10T10:26:01.066Z,12.67
2018-11-10T10:28:32.985Z,11.43
2018-11-10T10:31:05.147Z,13.13
2018-11-10T10:33:37.420Z,12.50
2018-11-10T10:36:09.339Z,12.07
2018-11-10T10:38:40.414Z,12.17
2018-11-10T10:41:12.770Z,12.73
2018-11-10T10:43:44.741Z,12.07
2018-11-10T10:46:17.095Z,11.90
2018-11-10T10:48:48.692Z,11.87
2018-11-10T10:51:20.925Z,11.57
2018-11-10T10:53:52.290Z,13.27
2018-11-10T10:56:23.357Z,12.67
2018-11-10T10:58:55.366Z,12.07
2018-11-10T11:01:44.041Z,11.60
2018-11-10T11:04:32.570Z,12.27
2018-11-10T11:07:04.513Z,12.33
2018-11-10T11:09:36.004Z,12.80
2018-11-10T11:12:07.738Z,11.97
2018-11-10T11:14:40.570Z,11.77
2018-11-10T11:17:12.286Z,12.00
2018-11-10T11:19:45.478Z,11.30
2018-11-10T11:22:17.199Z,11.63
2018-11-10T11:24:49.300Z,12.03
2018-11-10T11:27:20.788Z,11.87
2018-11-10T11:29:53.775Z,12.43
2018-11-10T11:32:25.109Z,12.27
2018-11-10T11:34:56.148Z,11.60
2018-11-10T11:37:27.799Z,11.43
2018-11-10T11:40:00.364Z,12.33
2018-11-10T11:42:31.827Z,11.93
2018-11-10T11:45:03.475Z,11.97
2018-11-10T11:47:36.258Z,10.67
2018-11-10T11:50:10.147Z,11.30
2018-11-10T11:52:42.405Z,12.10
2018-11-10T11:55:14.090Z,10.80
2018-11-10T11:57:46.640Z,11.13
2018-11-10T12:00:19.441Z,11.83
2018-11-10T12:02:51.458Z,11.40
2018-11-10T12:05:23.918Z,11.30
2018-11-10T12:07:55.458Z,11.13
2018-11-10T12:10:27.317Z,11.57
2018-11-10T12:12:59.270Z,11.87
2018-11-10T12:15:31.336Z,11.07
2018-11-10T12:18:03.855Z,11.80
2018-11-10T12:20:35.451Z,11.67
2018-11-10T12:23:07.143Z,11.60
2018-11-10T12:25:39.895Z,13.30
2018-11-10T12:28:13.144Z,13.23
2018-11-10T12:30:45.220Z,12.80
2018-11-10T12:33:20.081Z,13.17
2018-11-10T12:35:51.416Z,13.33
2018-11-10T12:38:23.354Z,13.40
2018-11-10T12:40:54.956Z,12.80
2018-11-10T12:43:27.548Z,14.27
2018-11-10T12:45:59.274Z,13.60
2018-11-10T12:48:30.762Z,12.97
2018-11-10T12:51:03.714Z,12.67
2018-11-10T12:53:36.677Z,13.60
2018-11-10T12:56:08.456Z,13.27
2018-11-10T12:58:40.632Z,13.60
2018-11-10T13:01:12.439Z,14.20
2018-11-10T13:03:45.396Z,13.53
2018-11-10T13:06:18.151Z,14.00
2018-11-10T13:08:51.159Z,14.67
2018-11-10T13:11:22.830Z,13.77
2018-11-10T13:13:54.591Z,15.60
2018-11-10T13:16:26.208Z,14.17
2018-11-10T13:18:59.403Z,13.73
2018-11-10T13:21:31.055Z,13.87
2018-11-10T13:24:04.970Z,13.97
2018-11-10T13:26:37.745Z,13.70
2018-11-10T13:29:10.540Z,14.93
2018-11-10T13:31:41.807Z,15.27
2018-11-10T13:34:12.923Z,14.83
2018-11-10T13:36:44.638Z,14.67
2018-11-10T13:39:16.209Z,14.60
2018-11-10T13:41:47.670Z,15.23
2018-11-10T13:44:19.699Z,14.40
2018-11-10T13:46:51.442Z,15.43
2018-11-10T13:49:23.556Z,14.63
2018-11-10T13:51:54.978Z,14.93
2018-11-10T13:54:26.113Z,15.00
2018-11-10T13:56:58.202Z,14.37
2018-11-10T13:59:32.283Z,14.87
2018-11-10T14:02:04.112Z,14.90
2018-11-10T14:04:36.211Z,15.50
2018-11-10T14:07:07.334Z,15.03
2018-11-10T14:09:40.443Z,15.27
2018-11-10T14:12:12.439Z,15.23
2018-11-10T14:14:44.046Z,14.87
2018-11-10T14:17:15.530Z,14.27
2018-11-10T14:19:47.951Z,15.80
2018-11-10T14:22:21.045Z,16.20
2018-11-10T14:24:53.155Z,15.57
2018-11-10T14:27:24.265Z,15.27
2018-11-10T14:29:55.745Z,14.63
2018-11-10T14:32:28.044Z,14.73
2018-11-10T14:35:00.634Z,15.63
2018-11-10T14:37:32.968Z,16.17
2018-11-10T14:40:04.938Z,14.53
2018-11-10T14:42:37.570Z,15.03
2018-11-10T14:45:13.984Z,15.67
2018-11-10T14:47:46.509Z,15.07
2018-11-10T14:50:20.288Z,15.03
2018-11-10T14:52:53.239Z,15.70
2018-11-10T14:55:26.043Z,15.23
2018-11-10T14:57:57.532Z,15.43
2018-11-10T15:00:30.621Z,16.00
2018-11-10T15:03:02.085Z,15.90
2018-11-10T15:05:37.257Z,15.90
2018-11-10T15:08:07.309Z,14.90
2018-11-10T15:10:40.100Z,15.07
2018-11-10T15:13:12.874Z,15.80
2018-11-10T15:15:44.407Z,16.37
2018-11-10T15:18:17.352Z,16.00
2018-11-10T15:20:49.016Z,16.03
2018-11-10T15:23:20.260Z,15.73
2018-11-10T15:25:51.717Z,15.13
2018-11-10T15:28:25.488Z,16.43
2018-11-10T15:30:58.739Z,16.17
2018-11-10T15:33:30.002Z,15.53
2018-11-10T15:36:02.180Z,16.17
2018-11-10T15:38:33.774Z,16.70
2018-11-10T15:41:27.051Z,16.73
2018-11-10T15:44:00.314Z,18.23
2018-11-10T15:46:34.105Z,16.33
2018-11-10T15:49:07.571Z,16.80
2018-11-10T15:51:41.514Z,17.40
2018-11-10T15:54:12.809Z,16.40
2018-11-10T15:56:44.412Z,16.77
2018-11-10T15:59:17.339Z,16.50
2018-11-10T16:02:11.307Z,17.73
2018-11-10T16:04:42.965Z,16.87
2018-11-10T16:07:14.607Z,17.23
2018-11-10T16:09:46.178Z,17.73
2018-11-10T16:12:17.546Z,17.10
2018-11-10T16:14:50.526Z,18.50
2018-11-10T16:17:21.782Z,17.17
2018-11-10T16:19:55.129Z,17.50
2018-11-10T16:22:27.432Z,17.47
2018-11-10T16:24:59.198Z,18.13
2018-11-10T16:27:31.995Z,18.13
2018-11-10T16:30:04.302Z,18.47
2018-11-10T16:32:37.718Z,19.00
2018-11-10T16:35:16.038Z,18.43
2018-11-10T16:37:49.502Z,17.20
2018-11-10T16:40:22.309Z,17.30
2018-11-10T16:42:54.351Z,17.97
2018-11-10T16:45:26.842Z,17.77
2018-11-10T16:47:58.572Z,18.50
2018-11-10T16:50:30.389Z,17.27
2018-11-10T16:53:02.797Z,18.17
2018-11-10T16:55:34.973Z,18.10
2018-11-10T16:58:07.034Z,18.23
2018-11-10T17:00:40.041Z,19.07
2018-11-10T17:03:11.290Z,18.20
2018-11-10T17:05:42.529Z,19.57
2018-11-10T17:08:15.462Z,18.80
2018-11-10T17:10:47.695Z,18.97
2018-11-10T17:13:19.402Z,19.20
2018-11-10T17:15:51.511Z,19.03
2018-11-10T17:18:24.705Z,19.20
2018-11-10T17:20:56.047Z,17.97
2018-11-10T17:23:27.705Z,19.77
2018-11-10T17:25:59.480Z,19.23
2018-11-10T17:28:31.816Z,19.23
2018-11-10T17:31:04.802Z,18.73
2018-11-10T17:33:38.270Z,19.83
2018-11-10T17:36:11.526Z,19.17
2018-11-10T17:38:42.784Z,18.90
2018-11-10T17:41:14.816Z,19.47
2018-11-10T17:43:46.955Z,19.20
2018-11-10T17:46:18.770Z,21.20
2018-11-10T17:48:50.487Z,20.70
2018-11-10T17:51:23.713Z,19.23
2018-11-10T17:53:57.602Z,19.60
2018-11-10T17:56:29.302Z,18.83
2018-11-10T17:59:02.466Z,19.30
2018-11-10T18:01:35.824Z,19.33
2018-11-10T18:04:08.019Z,18.67
2018-11-10T18:06:41.324Z,19.30
2018-11-10T18:09:14.275Z,19.17
2018-11-10T18:11:46.156Z,19.67
2018-11-10T18:14:17.223Z,18.67
2018-11-10T18:16:49.258Z,18.33
2018-11-10T18:19:21.582Z,18.63
2018-11-10T18:21:54.946Z,17.77
2018-11-10T18:24:27.372Z,19.20
2018-11-10T18:26:58.973Z,19.53
2018-11-10T18:29:31.384Z,19.17
2018-11-10T18:32:02.463Z,18.77
2018-11-10T18:34:34.853Z,19.10
2018-11-10T18:37:06.930Z,19.00
2018-11-10T18:39:40.128Z,19.27
2018-11-10T18:42:11.983Z,18.70
2018-11-10T18:44:43.620Z,18.07
2018-11-10T18:47:15.009Z,18.27
2018-11-10T18:49:46.454Z,18.40
2018-11-10T18:52:17.848Z,18.40
2018-11-10T18:54:50.115Z,18.00
2018-11-10T18:57:21.744Z,19.23
2018-11-10T18:59:55.339Z,17.87
2018-11-10T19:02:27.683Z,18.53
2018-11-10T19:04:58.879Z,17.60
2018-11-10T19:07:30.275Z,17.50
2018-11-10T19:10:02.130Z,18.00
2018-11-10T19:12:34.032Z,18.37
2018-11-10T19:15:05.432Z,18.20
2018-11-10T19:17:37.398Z,17.23
2018-11-10T19:20:10.019Z,17.20
2018-11-10T19:22:44.853Z,16.87
2018-11-10T19:25:16.687Z,17.90
2018-11-10T19:27:49.491Z,18.03
2018-11-10T19:30:21.843Z,16.30
2018-11-10T19:32:53.243Z,17.70
2018-11-10T19:35:25.758Z,17.33
2018-11-10T19:37:57.461Z,17.83
2018-11-10T19:40:29.804Z,17.27
2018-11-10T19:43:01.441Z,17.30
2018-11-10T19:45:32.773Z,17.63
2018-11-10T19:48:04.678Z,17.13
2018-11-10T19:50:37.139Z,17.93
2018-11-10T19:53:09.396Z,17.23
2018-11-10T19:55:40.520Z,18.37
2018-11-10T19:58:14.478Z,16.47
2018-11-10T20:00:47.568Z,17.33
2018-11-10T20:03:19.428Z,17.33
2018-11-10T20:05:53.690Z,17.93
2018-11-10T20:08:27.665Z,16.97
2018-11-10T20:11:01.596Z,17.07
2018-11-10T20:13:45.028Z,17.10
2018-11-10T20:16:33.121Z,17.00
2018-11-10T20:19:05.542Z,16.93
2018-11-10T20:21:38.316Z,16.93
2018-11-10T20:24:09.943Z,17.67
2018-11-10T20:26:42.039Z,16.77
2018-11-10T20:29:14.943Z,16.37
2018-11-10T20:31:48.201Z,17.80
2018-11-10T20:34:19.357Z,15.80
2018-11-10T20:36:50.498Z,17.17
2018-11-10T20:39:22.139Z,17.20
2018-11-10T20:41:56.101Z,16.47
2018-11-10T20:44:28.957Z,17.87
2018-11-10T20:47:03.832Z,16.30
2018-11-10T20:49:35.970Z,16.87
2018-11-10T20:52:07.246Z,17.67
2018-11-10T20:54:39.902Z,15.97
2018-11-10T20:57:12.041Z,16.83
2018-11-10T20:59:44.381Z,15.87
2018-11-10T21:02:15.984Z,17.60
2018-11-10T21:04:47.762Z,17.23
2018-11-10T21:07:19.993Z,17.30
2018-11-10T21:09:51.339Z,17.17
2018-11-10T21:12:23.595Z,18.00
2018-11-10T21:14:55.600Z,15.77
2018-11-10T21:17:27.636Z,16.37
2018-11-10T21:20:00.600Z,15.57
2018-11-10T21:22:33.269Z,16.37
2018-11-10T21:25:05.668Z,15.93
2018-11-10T21:27:37.408Z,16.53
2018-11-10T21:30:11.219Z,16.83
2018-11-10T21:32:43.957Z,15.23
2018-11-10T21:35:15.981Z,16.53
2018-11-10T21:37:47.981Z,15.73
2018-11-10T21:40:21.248Z,16.97
2018-11-10T21:42:53.095Z,16.20
2018-11-10T21:45:25.159Z,15.03
2018-11-10T21:47:57.567Z,15.67
2018-11-10T21:50:30.130Z,15.13
2018-11-10T21:53:03.134Z,14.80
2018-11-10T21:55:35.664Z,15.93
2018-11-10T21:58:07.824Z,15.07
2018-11-10T22:00:40.793Z,15.37
2018-11-10T22:03:12.771Z,15.43
2018-11-10T22:05:44.851Z,15.13
2018-11-10T22:08:17.007Z,16.07
2018-11-10T22:10:48.621Z,15.57
2018-11-10T22:13:21.154Z,15.17
2018-11-10T22:15:52.713Z,15.20
2018-11-10T22:18:24.779Z,16.00
2018-11-10T22:20:56.185Z,16.40
2018-11-10T22:23:28.249Z,17.33
2018-11-10T22:25:59.944Z,16.50
2018-11-10T22:28:31.697Z,16.97
2018-11-10T22:31:04.110Z,16.50
2018-11-10T22:33:35.171Z,16.57
2018-11-10T22:36:07.289Z,16.23
2018-11-10T22:38:39.204Z,15.23
2018-11-10T22:41:11.897Z,15.27
2018-11-10T22:43:43.885Z,14.77
2018-11-10T22:46:15.020Z,16.73
2018-11-10T22:48:46.784Z,16.13
2018-11-10T22:51:19.168Z,15.20
2018-11-10T22:53:50.828Z,15.93
2018-11-10T22:56:23.464Z,16.47
2018-11-10T22:58:54.677Z,15.37
2018-11-10T23:01:31.681Z,16.30
2018-11-10T23:04:03.393Z,14.73
2018-11-10T23:06:35.004Z,15.53
2018-11-10T23:09:08.433Z,16.03
2018-11-10T23:11:41.128Z,16.07
2018-11-10T23:14:12.475Z,16.80
2018-11-10T23:16:43.526Z,16.07
2018-11-10T23:19:15.145Z,16.00
2018-11-10T23:21:46.622Z,17.70
2018-11-10T23:24:19.091Z,16.93
2018-11-10T23:26:50.560Z,16.77
2018-11-10T23:29:21.921Z,17.50
2018-11-10T23:31:53.436Z,17.03
2018-11-10T23:34:24.463Z,17.97
2018-11-10T23:36:55.939Z,18.33
2018-11-10T23:39:28.159Z,17.33
2018-11-10T23:41:59.299Z,17.10
2018-11-10T23:44:30.868Z,18.53
2018-11-10T23:47:02.462Z,18.13
2018-11-10T23:49:34.142Z,18.20
2018-11-10T23:52:05.241Z,18.10
2018-11-10T23:54:36.772Z,17.30
2018-11-10T23:57:08.550Z,18.10
2018-11-10T23:59:39.644Z,17.03
